Time;durP1;ratioP1;P1;durP2;ratioP2;P2;SDS_P1;SDS_P2;PMS_P1;PMS_P2;Temp;Humidity;BMP_temperature;BMP_pressure;BME280_temperature;BME280_humidity;BME280_pressure;Samples;Min_cycle;Max_cycle;Signal;HPM_P1;HPM_P2
2022/08/19 00:02:21;;;;;;;17.17;13.00;;;;;;;24.69;68.41;99896.16;5093530;28;20186;-65
2022/08/19 00:04:52;;;;;;;16.20;13.07;;;;;;;24.71;67.91;99898.59;5093521;28;20178;-65
2022/08/19 00:07:17;;;;;;;15.10;12.90;;;;;;;24.68;68.47;99897.41;5093597;28;20197;-65
2022/08/19 00:09:44;;;;;;;15.20;13.00;;;;;;;24.68;68.13;99891.63;5093401;28;20850;-65
2022/08/19 00:12:10;;;;;;;17.17;13.23;;;;;;;24.68;68.37;99890.81;5092946;28;20680;-65
2022/08/19 00:14:35;;;;;;;15.43;13.30;;;;;;;24.66;68.37;99887.53;5093050;28;20490;-65
2022/08/19 00:17:02;;;;;;;13.90;12.10;;;;;;;24.66;68.28;99881.75;5093464;28;20182;-65
2022/08/19 00:19:28;;;;;;;15.00;12.27;;;;;;;24.65;68.11;99869.41;5093196;28;20174;-65
2022/08/19 00:21:54;;;;;;;17.23;14.13;;;;;;;24.64;68.71;99864.88;5091817;28;20431;-65
2022/08/19 00:24:19;;;;;;;16.50;12.90;;;;;;;24.66;68.36;99865.28;5091876;28;20265;-65
2022/08/19 00:26:45;;;;;;;14.10;12.70;;;;;;;24.66;68.39;99876.00;5093024;28;20531;-65
2022/08/19 00:29:11;;;;;;;14.03;12.53;;;;;;;24.67;68.63;99871.84;5092889;28;20546;-65
2022/08/19 00:31:37;;;;;;;14.90;13.30;;;;;;;24.68;68.29;99882.16;5091942;28;20549;-65
2022/08/19 00:34:02;;;;;;;15.87;12.60;;;;;;;24.69;68.42;99880.91;5091218;28;20461;-65
2022/08/19 00:36:28;;;;;;;16.23;11.77;;;;;;;24.68;68.16;99880.06;5071978;28;20642;-65
2022/08/19 00:38:54;;;;;;;19.63;12.73;;;;;;;24.68;67.92;99885.84;5090094;28;20179;-65
2022/08/19 00:41:21;;;;;;;16.40;13.60;;;;;;;24.69;67.96;99880.91;5091526;28;20166;-65
2022/08/19 00:44:05;;;;;;;15.63;11.57;;;;;;;24.69;68.25;99872.25;5092696;28;20249;-65
2022/08/19 00:46:32;;;;;;;16.43;11.90;;;;;;;24.68;67.84;99864.84;5080217;28;20413;-65
2022/08/19 00:48:58;;;;;;;13.87;12.40;;;;;;;24.67;68.11;99866.91;5071935;28;20446;-65
2022/08/19 00:51:26;;;;;;;13.80;12.30;;;;;;;24.66;68.03;99852.88;5053821;28;20425;-65
2022/08/19 00:53:52;;;;;;;13.13;11.73;;;;;;;24.68;68.25;99847.53;5071811;28;20282;-65
2022/08/19 00:56:18;;;;;;;17.13;13.20;;;;;;;24.68;67.68;99847.53;5072030;28;20517;-65
2022/08/19 00:58:43;;;;;;;14.60;12.60;;;;;;;24.68;67.48;99859.06;5071963;28;20481;-65
2022/08/19 01:01:09;;;;;;;13.80;12.37;;;;;;;24.66;67.73;99867.31;5073145;28;20444;-65
2022/08/19 01:03:34;;;;;;;14.70;12.60;;;;;;;24.65;67.64;99875.19;5090470;28;20224;-65
2022/08/19 01:06:00;;;;;;;14.27;11.37;;;;;;;24.65;67.95;99883.84;5071543;28;20569;-65
2022/08/19 01:08:25;;;;;;;16.30;12.53;;;;;;;24.65;67.86;99885.91;5071710;28;20871;-65
2022/08/19 01:10:56;;;;;;;13.87;12.40;;;;;;;24.58;67.81;99891.75;5070178;28;20206;-65
2022/08/19 01:13:23;;;;;;;12.77;11.13;;;;;;;24.61;67.58;99888.84;5054460;28;20504;-65
2022/08/19 01:15:52;;;;;;;18.03;12.90;;;;;;;24.62;67.51;99881.81;5070819;28;20441;-65
2022/08/19 01:18:18;;;;;;;14.50;12.37;;;;;;;24.62;68.19;99881.81;5070840;28;20908;-65
2022/08/19 01:20:44;;;;;;;15.70;13.27;;;;;;;24.62;67.94;99878.09;5070651;28;20425;-65
2022/08/19 01:23:09;;;;;;;14.93;13.23;;;;;;;24.60;67.63;99884.34;5070580;28;20248;-65
2022/08/19 01:25:49;;;;;;;14.70;12.83;;;;;;;24.60;67.79;99880.63;5071834;28;20417;-65
2022/08/19 01:28:26;;;;;;;13.23;11.60;;;;;;;24.59;67.85;99882.66;5071772;28;20182;-65
2022/08/19 01:30:51;;;;;;;15.97;11.93;;;;;;;24.59;68.28;99885.56;5071814;28;20900;-65
2022/08/19 01:33:17;;;;;;;15.00;12.27;;;;;;;24.59;67.88;99876.88;5071574;28;20507;-65
2022/08/19 01:35:44;;;;;;;16.23;12.90;;;;;;;24.60;67.93;99878.56;5086283;28;20174;-65
2022/08/19 01:38:18;;;;;;;14.23;12.10;;;;;;;24.60;67.66;99887.22;5090437;28;20186;-65
2022/08/19 01:40:44;;;;;;;14.43;12.83;;;;;;;24.59;67.92;99891.31;5091853;28;20412;-65
2022/08/19 01:43:09;;;;;;;16.07;12.53;;;;;;;24.59;67.49;99885.56;5091725;28;20408;-65
2022/08/19 01:45:35;;;;;;;14.10;12.60;;;;;;;24.60;67.65;99887.22;5091704;28;20185;-65
2022/08/19 01:48:00;;;;;;;14.50;11.93;;;;;;;24.60;67.62;99890.09;5091192;28;20166;-65
2022/08/19 01:50:26;;;;;;;15.13;12.53;;;;;;;24.59;67.80;99882.66;5091685;28;20171;-65
2022/08/19 01:52:51;;;;;;;13.23;11.70;;;;;;;24.59;67.66;99881.88;5091713;28;20178;-65
2022/08/19 01:55:21;;;;;;;14.10;11.73;;;;;;;24.59;67.60;99874.00;5090615;28;20201;-65
2022/08/19 01:57:49;;;;;;;14.43;12.00;;;;;;;24.57;67.69;99873.59;5073639;28;20206;-65
2022/08/19 02:00:15;;;;;;;14.93;12.00;;;;;;;24.55;67.84;99879.00;5070081;28;20790;-65
2022/08/19 02:02:41;;;;;;;13.43;12.03;;;;;;;24.55;68.00;99875.28;5070305;28;20991;-65
2022/08/19 02:05:07;;;;;;;13.83;11.90;;;;;;;24.54;67.69;99882.31;5074935;28;20531;-65
2022/08/19 02:07:33;;;;;;;16.73;12.97;;;;;;;24.53;67.89;99877.81;5075528;28;20185;-65
2022/08/19 02:10:03;;;;;;;16.80;13.40;;;;;;;24.53;68.17;99884.38;5075470;28;20421;-65
2022/08/19 02:12:28;;;;;;;17.30;11.80;;;;;;;24.54;67.68;99880.22;5075305;28;20617;-64
2022/08/19 02:14:54;;;;;;;14.90;12.40;;;;;;;24.54;67.97;99880.22;5075297;28;20456;-64
2022/08/19 02:17:20;;;;;;;15.70;12.60;;;;;;;24.56;67.42;99876.91;5075265;28;20172;-64
2022/08/19 02:19:45;;;;;;;13.73;12.30;;;;;;;24.53;68.00;99867.06;5075301;28;20171;-64
2022/08/19 02:22:11;;;;;;;18.13;12.60;;;;;;;24.53;68.11;99864.16;5075229;28;20167;-64
2022/08/19 02:24:36;;;;;;;14.17;12.27;;;;;;;24.53;67.91;99864.16;5075240;28;20164;-64
2022/08/19 02:27:02;;;;;;;13.70;11.90;;;;;;;24.54;68.14;99860.03;5075223;28;20175;-64
2022/08/19 02:29:27;;;;;;;14.97;12.00;;;;;;;24.54;67.78;99862.91;5075108;28;20173;-64
2022/08/19 02:31:53;;;;;;;12.60;11.30;;;;;;;24.56;68.02;99871.16;5074849;28;20179;-64
2022/08/19 02:34:18;;;;;;;15.93;11.37;;;;;;;24.57;68.12;99872.78;5075053;28;20195;-64
2022/08/19 02:36:44;;;;;;;14.93;11.80;;;;;;;24.57;67.96;99867.00;5085634;28;20208;-64
2022/08/19 02:39:10;;;;;;;14.10;11.63;;;;;;;24.56;67.95;99862.47;5095243;28;20171;-64
2022/08/19 02:41:35;;;;;;;12.07;10.87;;;;;;;24.56;67.60;99860.44;5094677;28;20174;-64
2022/08/19 02:44:01;;;;;;;13.80;10.90;;;;;;;24.57;67.81;99864.94;5095039;28;20216;-64
2022/08/19 02:46:29;;;;;;;15.17;12.37;;;;;;;24.55;68.03;99853.03;5094761;28;20261;-64
2022/08/19 02:48:56;;;;;;;12.93;11.23;;;;;;;24.55;67.53;99861.69;5095006;28;20523;-64
2022/08/19 02:51:24;;;;;;;13.30;11.80;;;;;;;24.56;67.71;99859.59;5094752;28;20905;-64
2022/08/19 02:53:50;;;;;;;13.10;11.70;;;;;;;24.56;67.87;99866.19;5093587;28;20456;-64
2022/08/19 02:56:15;;;;;;;13.27;10.67;;;;;;;24.56;67.71;99866.19;5093630;28;20725;-64
2022/08/19 02:58:41;;;;;;;21.87;11.20;;;;;;;24.56;67.61;99874.84;5094902;28;20277;-64
2022/08/19 03:01:06;;;;;;;11.83;10.60;;;;;;;24.57;67.49;99875.66;5091901;28;20174;-64
2022/08/19 03:03:32;;;;;;;11.40;10.20;;;;;;;24.57;67.75;99872.78;5074439;28;20166;-64
2022/08/19 03:06:09;;;;;;;12.70;10.57;;;;;;;24.57;67.53;99870.72;5074348;28;20171;-64
2022/08/19 03:08:34;;;;;;;11.73;10.53;;;;;;;24.56;67.28;99871.97;5074668;28;20175;-64
2022/08/19 03:10:59;;;;;;;13.83;11.40;;;;;;;24.56;67.42;99871.97;5072764;28;20440;-64
2022/08/19 03:13:25;;;;;;;13.60;10.80;;;;;;;24.55;67.60;99872.41;5074303;28;20159;-64
2022/08/19 03:15:50;;;;;;;12.37;10.03;;;;;;;24.54;67.49;99874.44;5073647;28;20668;-64
2022/08/19 03:18:17;;;;;;;14.80;10.43;;;;;;;24.55;67.67;99869.50;5073015;28;20259;-64
2022/08/19 03:20:48;;;;;;;13.40;11.33;;;;;;;24.55;67.78;99878.16;5074149;28;20225;-64
2022/08/19 03:23:15;;;;;;;11.90;10.07;;;;;;;24.53;67.82;99881.47;5074198;28;20416;-64
2022/08/19 03:25:42;;;;;;;12.20;10.90;;;;;;;24.53;67.87;99883.56;5073930;28;20437;-64
2022/08/19 03:28:09;;;;;;;13.33;10.77;;;;;;;24.53;67.75;99889.34;5073854;28;20916;-64
2022/08/19 03:30:34;;;;;;;11.10;9.87;;;;;;;24.53;67.74;99889.34;5073884;28;20536;-64
2022/08/19 03:33:00;;;;;;;13.60;11.13;;;;;;;24.52;67.84;99888.50;5073418;28;20460;-64
2022/08/19 03:35:25;;;;;;;12.33;10.43;;;;;;;24.53;67.43;99890.16;5088882;28;20202;-64
2022/08/19 03:37:51;;;;;;;15.63;11.90;;;;;;;24.53;67.70;99898.81;5093539;28;20171;-64
2022/08/19 03:40:17;;;;;;;13.23;11.00;;;;;;;24.52;67.66;99897.16;5093524;28;20174;-64
2022/08/19 03:42:42;;;;;;;15.60;11.37;;;;;;;24.51;67.86;99898.44;5093611;28;20194;-64
2022/08/19 03:45:10;;;;;;;12.20;10.63;;;;;;;24.52;67.60;99894.28;5092091;28;20408;-64
2022/08/19 03:47:36;;;;;;;12.60;10.40;;;;;;;24.52;68.10;99894.28;5093497;28;20194;-64
2022/08/19 03:50:02;;;;;;;14.00;10.97;;;;;;;24.54;67.63;99896.75;5089681;28;20463;-64
2022/08/19 03:52:28;;;;;;;11.83;10.20;;;;;;;24.52;67.74;99900.06;5093783;28;20444;-64
2022/08/19 03:54:53;;;;;;;14.83;10.27;;;;;;;24.54;67.71;99900.44;5093727;28;20417;-64
2022/08/19 03:57:18;;;;;;;12.70;9.77;;;;;;;24.52;67.75;99897.16;5093659;28;20185;-64
2022/08/19 03:59:44;;;;;;;16.60;11.23;;;;;;;24.53;67.74;99898.81;5093653;28;20714;-64
2022/08/19 04:02:11;;;;;;;15.10;10.40;;;;;;;24.52;67.68;99900.06;5093569;28;20183;-64
2022/08/19 04:04:37;;;;;;;12.20;10.20;;;;;;;24.51;67.64;99909.97;5093575;28;20169;-64
2022/08/19 04:07:03;;;;;;;13.20;10.37;;;;;;;24.52;67.36;99911.59;5093433;28;20427;-64
2022/08/19 04:09:28;;;;;;;10.47;9.37;;;;;;;24.52;67.42;99902.13;5093401;28;20409;-64
2022/08/19 04:11:55;;;;;;;12.97;10.23;;;;;;;24.51;67.71;99898.44;5091496;28;20230;-64
2022/08/19 04:14:21;;;;;;;10.27;9.17;;;;;;;24.53;67.36;99906.66;5093359;28;20272;-64
2022/08/19 04:16:47;;;;;;;14.17;10.73;;;;;;;24.52;67.71;99902.13;5093289;28;20832;-64
2022/08/19 04:19:13;;;;;;;12.30;10.73;;;;;;;24.53;67.32;99907.47;5093410;28;20412;-64
2022/08/19 04:21:38;;;;;;;13.20;10.70;;;;;;;24.50;67.64;99899.69;5092033;28;20239;-65
2022/08/19 04:24:06;;;;;;;12.03;9.70;;;;;;;24.51;67.55;99897.59;5075113;28;20273;-64
2022/08/19 04:26:33;;;;;;;13.17;10.40;;;;;;;24.50;67.62;99888.13;5092259;28;20933;-64
2022/08/19 04:29:00;;;;;;;12.93;10.10;;;;;;;24.51;67.50;99891.81;5090022;28;20430;-64
2022/08/19 04:31:29;;;;;;;10.53;9.17;;;;;;;24.50;67.75;99891.03;5092909;28;20420;-64
2022/08/19 04:33:59;;;;;;;11.77;9.87;;;;;;;24.50;67.66;99902.56;5091644;28;20967;-64
2022/08/19 04:36:30;;;;;;;14.07;9.70;;;;;;;24.51;67.46;99906.25;5092779;28;20413;-64
2022/08/19 04:38:57;;;;;;;12.50;10.63;;;;;;;24.50;67.69;99905.47;5092772;28;20459;-64
2022/08/19 04:44:07;;;;;;;11.00;9.70;;;;;;;24.50;67.59;99908.34;5091460;28;20396;-64
2022/08/19 04:46:32;;;;;;;12.53;10.70;;;;;;;24.50;67.30;99904.63;5091386;28;20420;-64
2022/08/19 04:48:59;;;;;;;11.53;10.10;;;;;;;24.50;67.54;99904.63;5092716;28;20613;-64
2022/08/19 04:51:24;;;;;;;14.20;10.80;;;;;;;24.48;67.46;99907.94;5092550;28;20259;-64
2022/08/19 04:53:51;;;;;;;11.73;10.00;;;;;;;24.50;67.58;99910.41;5092507;28;20455;-64
2022/08/19 04:56:19;;;;;;;14.07;10.37;;;;;;;24.49;67.24;99924.00;5092571;28;20175;-64
2022/08/19 04:58:44;;;;;;;13.00;9.60;;;;;;;24.49;67.31;99924.00;5092599;28;20405;-64
2022/08/19 05:01:14;;;;;;;14.47;11.00;;;;;;;24.47;67.77;99928.56;5092357;28;20449;-64
2022/08/19 05:03:39;;;;;;;13.90;10.30;;;;;;;24.46;67.25;99930.66;5074168;28;20181;-64
2022/08/19 05:06:11;;;;;;;10.60;9.00;;;;;;;24.46;67.52;99924.03;5092434;28;20457;-64
2022/08/19 05:08:39;;;;;;;13.00;10.43;;;;;;;24.47;67.51;99934.34;5092424;28;20170;-64
2022/08/19 05:11:10;;;;;;;11.53;10.20;;;;;;;24.47;67.67;99932.28;5088726;28;21040;-64
2022/08/19 05:13:36;;;;;;;11.77;10.57;;;;;;;24.47;67.80;99948.75;5069410;28;20510;-64
2022/08/19 05:16:02;;;;;;;18.83;10.53;;;;;;;24.48;67.57;99950.44;5070917;28;20417;-64
2022/08/19 05:24:08;;;;;;;13.40;10.43;;;;;;;24.46;67.64;99965.28;5016036;28;20436;-64
2022/08/19 05:26:37;;;;;;;14.20;10.50;;;;;;;24.46;67.47;99968.16;5070385;28;20405;-64
2022/08/19 05:29:03;;;;;;;11.97;9.50;;;;;;;24.46;67.55;99973.94;5070655;28;20432;-64
2022/08/19 05:31:28;;;;;;;12.00;10.43;;;;;;;24.46;67.68;99967.34;5071360;28;20433;-64
2022/08/19 05:33:54;;;;;;;14.07;10.90;;;;;;;24.46;67.76;99982.59;5070877;28;20565;-64
2022/08/19 05:36:19;;;;;;;16.40;11.67;;;;;;;24.46;67.75;99978.88;5081021;28;20633;-64
2022/08/19 05:38:47;;;;;;;13.80;11.03;;;;;;;24.46;67.80;99985.50;5091373;28;20220;-64
2022/08/19 05:41:14;;;;;;;15.37;11.37;;;;;;;24.42;67.71;99978.94;5091331;28;20223;-64
2022/08/19 05:43:39;;;;;;;14.60;11.50;;;;;;;24.43;67.63;99991.31;5090909;28;20455;-64
2022/08/19 05:46:05;;;;;;;13.77;11.30;;;;;;;24.43;69.29;99988.41;5078423;28;20420;-64
2022/08/19 05:48:32;;;;;;;18.60;14.07;;;;;;;24.62;69.98;99985.75;5088152;28;20175;-64
2022/08/19 05:50:59;;;;;;;19.60;15.50;;;;;;;24.86;72.20;99990.41;5076081;28;20473;-64
2022/08/19 05:53:24;;;;;;;22.60;18.90;;;;;;;24.84;72.18;99981.34;5070920;28;20954;-64
2022/08/19 05:55:50;;;;;;;23.63;17.37;;;;;;;24.74;70.76;99987.25;5076266;28;20487;-64
2022/08/19 05:58:16;;;;;;;18.23;15.53;;;;;;;24.73;71.34;99985.63;5090716;28;20175;-64
2022/08/19 06:00:42;;;;;;;21.50;19.13;;;;;;;24.78;71.64;99977.28;5091002;28;20181;-64
2022/08/19 06:03:08;;;;;;;24.47;20.70;;;;;;;24.70;71.31;99978.66;5089997;28;20182;-64
2022/08/19 06:05:34;;;;;;;23.80;17.97;;;;;;;24.65;70.77;99984.06;5089981;28;20428;-64
2022/08/19 06:08:00;;;;;;;22.07;18.40;;;;;;;24.63;70.30;99986.56;5091146;28;20178;-63
2022/08/19 06:10:26;;;;;;;20.93;18.50;;;;;;;24.63;70.46;99992.34;5090989;28;20435;-63
2022/08/19 06:12:51;;;;;;;24.90;20.57;;;;;;;24.57;70.05;99989.06;5090487;28;20233;-63
2022/08/19 06:15:17;;;;;;;26.27;20.73;;;;;;;24.60;70.95;99998.97;5090791;28;20583;-63
2022/08/19 06:17:44;;;;;;;26.83;19.87;;;;;;;24.58;69.48;99989.91;5090508;28;20516;-63
2022/08/19 06:20:11;;;;;;;27.63;21.57;;;;;;;24.50;70.25;99992.06;5090470;28;20712;-63
2022/08/19 06:22:52;;;;;;;24.53;20.80;;;;;;;24.54;70.42;99994.88;5090712;28;20481;-63
2022/08/19 06:25:17;;;;;;;25.07;20.93;;;;;;;24.56;70.28;100004.75;5089410;28;20767;-64
2022/08/19 06:27:43;;;;;;;29.67;22.13;;;;;;;24.55;69.16;100002.28;5089893;28;20455;-64
2022/08/19 06:30:10;;;;;;;29.57;23.60;;;;;;;24.55;69.23;100016.72;5090064;28;20174;-64
2022/08/19 06:32:35;;;;;;;30.73;23.00;;;;;;;24.55;69.14;100014.69;5089896;28;20192;-64
2022/08/19 06:35:01;;;;;;;28.70;22.13;;;;;;;24.54;68.53;100024.56;5086676;28;21234;-64
2022/08/19 06:37:26;;;;;;;27.33;22.77;;;;;;;24.54;67.83;100020.88;5089963;28;20186;-64
2022/08/19 06:39:51;;;;;;;24.60;20.93;;;;;;;24.52;68.06;100032.84;5089440;28;20193;-64
2022/08/19 06:42:18;;;;;;;28.23;21.47;;;;;;;24.51;67.58;100025.44;5088830;28;20228;-64
2022/08/19 06:44:45;;;;;;;24.93;20.87;;;;;;;24.61;67.26;100023.69;5089812;28;20205;-64
2022/08/19 06:47:12;;;;;;;30.30;24.97;;;;;;;24.79;67.23;100036.69;5090672;28;21054;-64
2022/08/19 06:49:38;;;;;;;32.63;26.07;;;;;;;24.72;64.98;100028.13;5090877;28;20428;-64
2022/08/19 06:52:03;;;;;;;24.80;22.10;;;;;;;24.72;66.10;100036.78;5094254;28;20755;-64
2022/08/19 06:54:30;;;;;;;30.10;24.37;;;;;;;24.70;65.79;100033.50;5094175;28;20230;-64
2022/08/19 06:57:01;;;;;;;27.43;23.07;;;;;;;24.58;64.52;100025.38;5094036;28;20186;-64
2022/08/19 06:59:27;;;;;;;28.43;23.30;;;;;;;24.61;65.27;100026.59;5094116;28;20397;-64
2022/08/19 07:01:53;;;;;;;26.80;23.10;;;;;;;24.59;65.00;100027.00;5094046;28;20497;-64
2022/08/19 07:04:21;;;;;;;29.67;23.47;;;;;;;24.55;64.21;100031.16;5094128;28;20566;-64
2022/08/19 07:06:47;;;;;;;32.23;23.63;;;;;;;24.45;64.54;100030.03;5093883;28;20506;-64
2022/08/19 07:09:14;;;;;;;27.53;22.23;;;;;;;24.50;64.46;100028.75;5093635;28;20428;-64
2022/08/19 07:11:44;;;;;;;27.60;22.93;;;;;;;24.49;63.88;100032.88;5076745;28;20245;-64
2022/08/19 07:14:10;;;;;;;29.60;23.23;;;;;;;24.45;64.39;100026.31;5082947;28;20967;-64
2022/08/19 07:16:35;;;;;;;29.97;22.37;;;;;;;24.30;65.17;100037.19;5091037;28;20424;-65
2022/08/19 07:19:01;;;;;;;28.73;21.87;;;;;;;24.17;65.66;100026.56;5093769;28;20170;-65
2022/08/19 07:21:30;;;;;;;28.13;22.00;;;;;;;24.32;65.32;100028.91;5077425;28;20187;-65
2022/08/19 07:23:56;;;;;;;26.00;21.57;;;;;;;24.35;64.96;100028.06;5093087;28;20220;-65
2022/08/19 07:26:32;;;;;;;26.40;22.27;;;;;;;24.37;64.80;100030.50;5093639;28;20416;-65
2022/08/19 07:28:58;;;;;;;28.07;22.67;;;;;;;24.29;64.89;100018.22;5092889;28;20514;-65
2022/08/19 07:31:24;;;;;;;25.17;20.00;;;;;;;24.34;65.01;100029.28;5091270;28;20420;-65
2022/08/19 07:33:51;;;;;;;28.47;21.93;;;;;;;24.33;65.04;100023.97;5090844;28;20420;-65
2022/08/19 07:36:18;;;;;;;23.43;20.93;;;;;;;24.28;65.32;100022.34;5093252;28;20460;-65
2022/08/19 07:38:45;;;;;;;29.17;22.57;;;;;;;24.30;64.83;100025.66;5093357;28;20588;-65
2022/08/19 07:41:11;;;;;;;27.30;21.83;;;;;;;24.29;65.15;100024.00;5071673;28;20434;-65
2022/08/19 07:43:37;;;;;;;30.53;22.63;;;;;;;24.35;65.09;100027.25;5085858;28;20432;-64
2022/08/19 07:46:03;;;;;;;28.73;20.90;;;;;;;24.33;65.58;100019.00;5088602;28;20458;-64
2022/08/19 07:48:28;;;;;;;26.97;21.93;;;;;;;24.35;66.02;100022.31;5093001;28;20600;-64
2022/08/19 07:50:54;;;;;;;28.00;22.30;;;;;;;24.33;65.27;100027.66;5091619;28;20590;-64
2022/08/19 07:53:23;;;;;;;31.17;21.17;;;;;;;24.36;65.06;100028.88;5091511;28;20208;-64
2022/08/19 07:55:49;;;;;;;25.03;20.30;;;;;;;24.35;65.10;100033.84;5093192;28;20831;-64
2022/08/19 07:58:16;;;;;;;24.37;20.60;;;;;;;24.35;65.11;100036.72;5093089;28;20439;-64
2022/08/19 08:00:42;;;;;;;23.20;19.67;;;;;;;24.37;64.80;100034.22;5090771;28;20194;-64
2022/08/19 08:03:08;;;;;;;24.80;19.83;;;;;;;24.38;64.93;100035.84;5092608;28;20424;-64
2022/08/19 08:09:10;;;;;;;33.73;19.53;;;;;;;24.38;64.49;100027.19;5092899;28;20937;-64
2022/08/19 08:11:06;;;;;;;23.40;18.97;;;;;;;24.20;64.84;100031.50;5092441;28;20504;-64
2022/08/19 08:13:34;;;;;;;24.40;19.17;;;;;;;24.11;65.45;100025.41;5092892;28;20903;-64
2022/08/19 08:16:00;;;;;;;25.73;18.53;;;;;;;24.25;65.20;100029.00;5091711;28;20558;-64
2022/08/19 08:18:26;;;;;;;24.23;19.00;;;;;;;24.29;64.22;100024.00;5091608;28;20420;-64
2022/08/19 08:20:51;;;;;;;22.33;18.17;;;;;;;24.30;64.33;100028.53;5092653;28;20542;-64
2022/08/19 08:23:24;;;;;;;21.73;18.37;;;;;;;24.30;63.95;100028.53;5092523;28;20170;-64
2022/08/19 08:25:50;;;;;;;25.00;17.93;;;;;;;24.31;63.83;100020.69;5091620;28;20212;-64
2022/08/19 08:28:16;;;;;;;21.67;18.63;;;;;;;24.31;64.11;100021.50;5092597;28;20497;-64
2022/08/19 08:30:43;;;;;;;21.47;18.87;;;;;;;24.31;64.04;100021.50;5092594;28;20209;-64
2022/08/19 08:33:09;;;;;;;21.57;18.00;;;;;;;24.32;64.02;100026.03;5075009;28;20467;-64
2022/08/19 08:35:34;;;;;;;21.90;18.10;;;;;;;24.31;63.94;100033.06;5070865;28;20497;-64
2022/08/19 08:38:01;;;;;;;23.67;18.53;;;;;;;24.28;63.99;100033.09;5070853;28;20183;-64
2022/08/19 08:40:34;;;;;;;23.00;18.67;;;;;;;24.22;64.17;100032.72;5070265;28;20520;-64
2022/08/19 08:43:22;;;;;;;22.97;18.70;;;;;;;24.26;64.21;100039.28;5072262;28;20421;-64
2022/08/19 08:45:52;;;;;;;22.83;18.87;;;;;;;24.17;64.20;100041.84;5075722;28;20408;-64
2022/08/19 08:48:24;;;;;;;22.53;17.70;;;;;;;24.23;64.31;100042.22;5089065;28;20472;-64
2022/08/19 08:50:52;;;;;;;20.77;17.87;;;;;;;24.30;64.22;100048.75;5090934;28;20424;-64
2022/08/19 08:53:19;;;;;;;25.60;20.47;;;;;;;24.10;64.58;100050.56;5073155;28;20420;-64
2022/08/19 08:55:45;;;;;;;18.57;16.57;;;;;;;24.26;64.27;100050.00;5091144;28;20448;-64
2022/08/19 08:58:17;;;;;;;19.40;17.27;;;;;;;24.31;63.94;100043.75;5091856;28;20519;-64
2022/08/19 09:00:45;;;;;;;20.27;16.50;;;;;;;24.33;64.08;100044.19;5073990;28;20781;-64
2022/08/19 09:03:19;;;;;;;24.63;18.40;;;;;;;24.34;64.29;100043.72;5073793;28;20480;-64
2022/08/19 09:05:47;;;;;;;20.17;17.10;;;;;;;24.35;63.97;100045.38;5090784;28;20820;-64
2022/08/19 09:08:40;;;;;;;20.60;16.63;;;;;;;24.37;64.13;100048.66;5091804;28;20488;-64
2022/08/19 09:11:08;;;;;;;18.03;15.60;;;;;;;24.33;63.93;100053.63;5090259;28;20460;-65
2022/08/19 09:13:51;;;;;;;18.30;15.63;;;;;;;24.26;63.77;100047.94;5091331;28;20428;-65
2022/08/19 09:16:20;;;;;;;20.73;16.73;;;;;;;24.31;64.06;100056.13;5078408;28;20520;-65
2022/08/19 09:18:48;;;;;;;18.30;16.33;;;;;;;24.36;63.64;100061.44;5071307;28;20413;-64
2022/08/19 09:21:16;;;;;;;20.10;15.47;;;;;;;24.31;63.57;100064.78;5088173;28;20424;-64
2022/08/19 09:23:43;;;;;;;18.60;16.33;;;;;;;24.36;63.71;100064.34;5072472;28;20912;-64
2022/08/19 09:26:15;;;;;;;18.33;14.50;;;;;;;24.34;63.74;100061.03;5071463;28;20437;-64
2022/08/19 09:28:44;;;;;;;18.70;16.57;;;;;;;24.38;63.59;100064.72;5070177;28;20407;-64
2022/08/19 09:31:12;;;;;;;19.40;14.53;;;;;;;24.37;63.52;100057.31;5071885;28;20414;-65
2022/08/19 09:33:38;;;;;;;16.03;14.10;;;;;;;24.37;63.29;100057.31;5091336;28;20420;-64
2022/08/19 09:36:08;;;;;;;16.50;14.10;;;;;;;24.37;63.26;100054.44;5091182;28;20480;-64
2022/08/19 09:38:34;;;;;;;17.47;14.80;;;;;;;24.43;63.04;100054.81;5090123;28;20262;-64
2022/08/19 09:41:26;;;;;;;16.73;14.40;;;;;;;24.43;63.04;100055.59;5088874;28;20439;-64
2022/08/19 09:43:53;;;;;;;16.43;13.10;;;;;;;24.42;62.16;100059.75;5077091;28;20571;-64
2022/08/19 09:46:31;;;;;;;14.17;12.67;;;;;;;24.46;62.45;100054.75;5089664;28;20439;-64
2022/08/19 09:48:58;;;;;;;17.80;12.03;;;;;;;24.49;62.01;100061.75;5091366;28;20392;-64
2022/08/19 09:51:26;;;;;;;17.30;12.80;;;;;;;24.49;60.98;100059.66;5090626;28;20415;-64
2022/08/19 09:53:53;;;;;;;16.73;12.30;;;;;;;24.53;61.87;100056.75;5089551;28;20456;-64
2022/08/19 09:56:19;;;;;;;15.93;12.97;;;;;;;24.59;61.69;100063.75;5089527;28;20915;-64
2022/08/19 09:58:44;;;;;;;15.00;12.30;;;;;;;24.60;61.44;100065.38;5081911;28;20474;-64
2022/08/19 10:01:37;;;;;;;13.40;10.87;;;;;;;24.62;61.29;100066.59;5081683;28;20167;-64
2022/08/19 10:04:08;;;;;;;13.87;10.77;;;;;;;24.60;61.25;100068.25;5087124;28;20182;-64
2022/08/19 10:06:33;;;;;;;13.20;10.77;;;;;;;24.60;61.23;100063.31;5091287;28;20416;-64
2022/08/19 10:08:59;;;;;;;12.10;9.90;;;;;;;24.63;60.96;100067.41;5089842;28;20900;-64
2022/08/19 10:11:26;;;;;;;12.90;11.33;;;;;;;24.61;60.78;100070.72;5089258;28;20241;-64
2022/08/19 10:13:51;;;;;;;12.30;10.60;;;;;;;24.61;60.87;100070.72;5089629;28;20197;-64
2022/08/19 10:16:19;;;;;;;12.77;11.37;;;;;;;24.64;60.77;100069.03;5090078;28;20421;-64
2022/08/19 10:18:45;;;;;;;13.50;11.73;;;;;;;24.69;60.90;100063.59;5090381;28;20174;-64
2022/08/19 10:21:14;;;;;;;15.17;11.73;;;;;;;24.67;60.64;100063.22;5088577;28;20439;-64
2022/08/19 10:23:44;;;;;;;14.93;12.33;;;;;;;24.69;60.59;100069.38;5089789;28;20228;-64
2022/08/19 10:26:13;;;;;;;15.60;12.23;;;;;;;24.80;60.58;100067.22;5092799;28;20510;-64
2022/08/19 10:28:39;;;;;;;15.97;12.00;;;;;;;24.82;60.76;100066.78;5074264;28;20440;-64
2022/08/19 10:31:22;;;;;;;13.83;11.03;;;;;;;24.79;61.13;100067.66;5074790;28;20760;-64
2022/08/19 10:33:48;;;;;;;16.47;11.10;;;;;;;24.82;61.26;100063.88;5079065;28;20191;-64
2022/08/19 10:36:19;;;;;;;16.30;11.33;;;;;;;24.79;60.89;100062.66;5073510;28;20457;-64
2022/08/19 10:38:46;;;;;;;14.67;12.70;;;;;;;24.77;60.59;100067.25;5074850;28;20190;-65
2022/08/19 10:41:17;;;;;;;15.80;11.77;;;;;;;24.78;60.87;100063.13;5073731;28;20428;-65
2022/08/19 10:43:44;;;;;;;15.33;11.67;;;;;;;24.76;60.65;100060.66;5055938;28;20424;-65
2022/08/19 10:46:13;;;;;;;15.60;11.60;;;;;;;24.75;60.12;100058.19;5082953;28;20424;-65
2022/08/19 10:48:38;;;;;;;14.30;11.50;;;;;;;24.71;60.38;100058.25;5083870;28;20970;-65
2022/08/19 10:53:49;;;;;;;12.40;11.10;;;;;;;24.71;60.51;100051.63;5073642;28;20173;-65
2022/08/19 10:58:58;;;;;;;12.20;10.57;;;;;;;24.76;60.10;100051.16;5093312;28;20227;-65
2022/08/19 11:01:25;;;;;;;13.87;10.93;;;;;;;24.71;60.42;100054.53;5094179;28;20440;-65
2022/08/19 11:03:50;;;;;;;14.83;11.80;;;;;;;24.69;60.53;100046.28;5094375;28;20541;-65
2022/08/19 11:06:16;;;;;;;13.00;11.17;;;;;;;24.69;60.46;100049.16;5092754;28;20417;-65
2022/08/19 11:08:45;;;;;;;16.50;12.77;;;;;;;24.69;59.91;100042.59;5094031;28;20185;-65
2022/08/19 11:11:10;;;;;;;13.30;11.83;;;;;;;24.69;60.66;100046.28;5094025;28;20483;-65
2022/08/19 11:13:39;;;;;;;14.43;11.73;;;;;;;24.68;60.58;100041.75;5094190;28;20424;-65
2022/08/19 11:16:06;;;;;;;15.03;12.60;;;;;;;24.67;60.38;100037.25;5093895;28;20293;-65
2022/08/19 11:18:33;;;;;;;12.10;10.80;;;;;;;24.68;60.88;100033.09;5086226;28;20427;-65
2022/08/19 11:21:31;;;;;;;18.10;12.20;;;;;;;24.69;60.37;100028.97;5073639;28;20449;-65
2022/08/19 11:23:57;;;;;;;14.40;10.63;;;;;;;24.69;60.80;100028.16;5073654;28;20451;-65
2022/08/19 11:26:23;;;;;;;14.83;12.33;;;;;;;24.68;60.44;100030.22;5073386;28;20449;-65
2022/08/19 11:28:50;;;;;;;15.30;12.70;;;;;;;24.70;60.27;100027.75;5073495;28;20924;-65
2022/08/19 11:31:17;;;;;;;16.07;12.73;;;;;;;24.65;60.53;100025.31;5073488;28;20171;-65
2022/08/19 11:33:43;;;;;;;14.30;12.00;;;;;;;24.67;60.26;100024.88;5072328;28;20425;-66